Terminal Aerodrome Forecast
Issued by NWS

Home | Current Version | Previous Version | Text Only | Print | Product List | Glossary On
Versions: 1 2 3 4 5 6 7 8 9 10 11 12 13 14 15 16 17 18 19 20 21 22 23 24 25 26 27 28 29 30 31 32 33 34 35 36
000
FTUS41 KBOX 050833 AAB
TAFBAF
TAF AMD
KBAF 050833Z 0509/0606 00000KT 3SM BR SCT001
     FM051100 00000KT P6SM FEW250
     FM051500 32006KT P6SM FEW060 FEW250
     FM052100 28007KT P6SM FEW060 FEW250
     FM060000 VRB03KT P6SM SKC=

USA.gov is the U.S. government's official web portal to all federal, state and local government web resources and services.